Time;durP1;ratioP1;P1;durP2;ratioP2;P2;SDS_P1;SDS_P2;PMS_P1;PMS_P2;Temp;Humidity;BMP_temperature;BMP_pressure;BME280_temperature;BME280_humidity;BME280_pressure;Samples;Min_cycle;Max_cycle;Signal;HPM_P1;HPM_P2
2023/01/17 00:00:28;;;;;;;10.25;9.65;;;;;;;;;;5026576;28;20475;-55
2023/01/17 00:02:53;;;;;;;9.90;9.30;;;;;;;;;;5027034;28;20029;-55
2023/01/17 00:10:47;;;;;;;9.52;8.93;;;;;;;;;;5027403;28;20115;-55
2023/01/17 00:13:12;;;;;;;9.90;9.30;;;;;;;;;;5027337;28;20041;-56
2023/01/17 00:15:38;;;;;;;10.23;9.57;;;;;;;;;;5026440;28;20055;-55
2023/01/17 00:18:04;;;;;;;10.15;9.55;;;;;;;;;;5027030;28;20459;-56
2023/01/17 00:26:14;;;;;;;9.25;8.68;;;;;;;;;;5024549;28;20123;-55
2023/01/17 01:35:27;;;;;;;9.73;9.13;;;;;;;;;;5026174;28;20108;-55
2023/01/17 01:37:53;;;;;;;9.98;9.38;;;;;;;;;;5025292;28;20052;-54
2023/01/17 01:40:19;;;;;;;10.77;9.95;;;;;;;;;;5026287;28;20033;-55
2023/01/17 01:42:56;;;;;;;10.18;9.57;;;;;;;;;;5015360;28;20026;-55
2023/01/17 01:45:30;;;;;;;9.88;9.27;;;;;;;;;;5025551;28;20457;-56
2023/01/17 01:48:03;;;;;;;10.27;9.68;;;;;;;;;;5024840;28;20045;-56
2023/01/17 01:50:29;;;;;;;10.02;9.43;;;;;;;;;;5022891;28;20124;-54
2023/01/17 01:52:59;;;;;;;10.30;9.70;;;;;;;;;;5025288;28;20041;-53
2023/01/17 01:55:29;;;;;;;11.15;10.45;;;;;;;;;;5025756;28;20033;-56
2023/01/17 01:57:58;;;;;;;10.07;9.48;;;;;;;;;;5025116;28;20535;-55
2023/01/17 02:00:34;;;;;;;9.80;9.20;;;;;;;;;;5024954;28;20179;-54
2023/01/17 02:03:08;;;;;;;10.48;9.88;;;;;;;;;;5024469;28;20033;-53
2023/01/17 02:05:34;;;;;;;11.00;10.30;;;;;;;;;;5041372;28;20044;-54
2023/01/17 02:08:15;;;;;;;9.93;9.32;;;;;;;;;;5024279;28;20041;-55
2023/01/17 02:10:42;;;;;;;10.88;10.20;;;;;;;;;;5024894;28;20044;-56
2023/01/17 02:13:08;;;;;;;10.82;10.15;;;;;;;;;;5025336;28;20134;-55
2023/01/17 02:15:43;;;;;;;9.95;9.35;;;;;;;;;;5024861;28;20037;-54
2023/01/17 02:18:38;;;;;;;9.65;9.05;;;;;;;;;;5022788;28;20029;-54
2023/01/17 02:21:22;;;;;;;11.98;10.40;;;;;;;;;;5022228;28;20387;-60
2023/01/17 02:24:18;;;;;;;10.45;9.85;;;;;;;;;;5024487;28;20034;-60
2023/01/17 02:27:01;;;;;;;10.13;9.52;;;;;;;;;;5024644;28;20038;-60
2023/01/17 02:29:48;;;;;;;11.23;10.52;;;;;;;;;;5025279;28;20090;-60
2023/01/17 02:32:29;;;;;;;10.50;9.88;;;;;;;;;;5024573;28;20346;-60
2023/01/17 02:35:19;;;;;;;10.88;10.23;;;;;;;;;;5023433;28;20044;-60
2023/01/17 02:38:06;;;;;;;9.90;9.30;;;;;;;;;;5025399;28;20040;-59
2023/01/17 02:40:44;;;;;;;11.73;10.90;;;;;;;;;;5023724;28;20076;-60
2023/01/17 02:43:13;;;;;;;9.85;9.25;;;;;;;;;;5024300;28;20395;-60
2023/01/17 02:45:39;;;;;;;10.25;9.65;;;;;;;;;;5024977;28;20045;-60
2023/01/17 02:48:07;;;;;;;10.13;9.52;;;;;;;;;;5023734;28;20486;-60
2023/01/17 02:50:48;;;;;;;9.60;9.00;;;;;;;;;;5023852;28;20041;-60
2023/01/17 02:53:27;;;;;;;9.77;9.18;;;;;;;;;;5022640;28;20033;-60
2023/01/17 02:55:56;;;;;;;10.10;9.50;;;;;;;;;;5024598;28;20053;-60
2023/01/17 02:58:28;;;;;;;10.05;9.45;;;;;;;;;;5024117;28;20030;-60
2023/01/17 03:01:18;;;;;;;10.38;9.77;;;;;;;;;;5024016;28;20026;-59
2023/01/17 03:03:52;;;;;;;9.77;9.18;;;;;;;;;;5025525;28;20049;-60
2023/01/17 03:06:39;;;;;;;10.15;9.55;;;;;;;;;;5021067;28;20072;-60
2023/01/17 03:09:05;;;;;;;10.73;10.10;;;;;;;;;;5023689;28;20049;-60
2023/01/17 03:11:31;;;;;;;10.18;9.57;;;;;;;;;;5023053;28;20037;-60
2023/01/17 03:13:56;;;;;;;10.98;10.27;;;;;;;;;;5024692;28;20047;-60
2023/01/17 03:16:24;;;;;;;10.82;10.13;;;;;;;;;;5024474;28;20095;-60
2023/01/17 03:18:50;;;;;;;10.45;9.85;;;;;;;;;;5024498;28;20037;-60
2023/01/17 03:21:15;;;;;;;10.90;10.20;;;;;;;;;;5023461;28;20053;-60
2023/01/17 03:23:41;;;;;;;10.52;9.93;;;;;;;;;;5024596;28;20422;-60
2023/01/17 03:26:06;;;;;;;10.60;9.90;;;;;;;;;;5023936;28;20041;-60
2023/01/17 03:28:31;;;;;;;9.88;9.27;;;;;;;;;;5028883;28;20048;-60
2023/01/17 03:30:57;;;;;;;10.57;9.88;;;;;;;;;;5026863;28;20374;-60
2023/01/17 03:33:23;;;;;;;10.27;9.57;;;;;;;;;;5028933;28;20044;-60
2023/01/17 03:35:48;;;;;;;10.05;9.35;;;;;;;;;;5026337;28;20099;-60
2023/01/17 03:38:14;;;;;;;10.15;9.55;;;;;;;;;;5027679;28;20045;-60
2023/01/17 03:40:40;;;;;;;10.55;9.95;;;;;;;;;;5027628;28;20044;-60
2023/01/17 03:43:06;;;;;;;10.82;10.13;;;;;;;;;;5027707;28;20867;-60
2023/01/17 03:45:31;;;;;;;9.73;9.13;;;;;;;;;;5026201;28;20485;-60
2023/01/17 03:47:57;;;;;;;10.32;9.65;;;;;;;;;;5027437;28;20033;-60
2023/01/17 03:50:23;;;;;;;10.50;9.80;;;;;;;;;;5028266;28;20029;-60
2023/01/17 03:52:49;;;;;;;9.90;9.30;;;;;;;;;;5028021;28;20025;-60
2023/01/17 03:55:16;;;;;;;10.52;9.82;;;;;;;;;;5027221;28;20029;-56
2023/01/17 03:57:41;;;;;;;9.65;9.05;;;;;;;;;;5028092;28;20088;-55
2023/01/17 04:00:07;;;;;;;9.65;9.05;;;;;;;;;;5026297;28;20038;-56
2023/01/17 04:02:32;;;;;;;9.43;8.82;;;;;;;;;;5027421;28;20068;-54
2023/01/17 04:04:58;;;;;;;10.75;10.05;;;;;;;;;;5027057;28;20057;-54
2023/01/17 04:07:23;;;;;;;10.75;10.10;;;;;;;;;;5028014;28;20569;-55
2023/01/17 04:09:48;;;;;;;9.73;9.02;;;;;;;;;;5027698;28;20068;-56
2023/01/17 04:12:14;;;;;;;9.80;9.20;;;;;;;;;;5026188;28;20029;-56
2023/01/17 04:14:39;;;;;;;9.43;8.82;;;;;;;;;;5027546;28;20045;-56
2023/01/17 04:17:08;;;;;;;9.63;9.02;;;;;;;;;;5027313;28;20087;-54
2023/01/17 04:19:35;;;;;;;9.88;9.27;;;;;;;;;;5027369;28;20037;-55
2023/01/17 04:22:01;;;;;;;9.23;8.63;;;;;;;;;;5024976;28;20378;-56
2023/01/17 04:24:26;;;;;;;10.23;9.63;;;;;;;;;;5026557;28;20767;-55
2023/01/17 04:26:52;;;;;;;11.35;10.65;;;;;;;;;;5025998;28;20107;-56
2023/01/17 04:29:17;;;;;;;10.30;9.60;;;;;;;;;;5025550;28;20041;-55
2023/01/17 04:31:42;;;;;;;10.30;9.60;;;;;;;;;;5027361;28;20025;-56
2023/01/17 04:34:08;;;;;;;9.85;9.25;;;;;;;;;;5026585;28;20030;-55
2023/01/17 04:36:33;;;;;;;9.20;8.60;;;;;;;;;;5027016;28;20117;-54
2023/01/17 04:38:58;;;;;;;10.05;9.45;;;;;;;;;;5023746;28;20029;-60
2023/01/17 04:41:24;;;;;;;10.75;10.05;;;;;;;;;;5025265;28;20051;-59
2023/01/17 04:43:49;;;;;;;9.07;8.48;;;;;;;;;;5027495;28;20065;-60
2023/01/17 04:46:15;;;;;;;10.38;9.75;;;;;;;;;;5027192;28;20116;-60
2023/01/17 04:48:40;;;;;;;10.00;9.40;;;;;;;;;;5027196;28;20075;-60
2023/01/17 04:51:05;;;;;;;9.43;8.82;;;;;;;;;;5025201;28;20060;-56
2023/01/17 04:53:31;;;;;;;9.80;9.20;;;;;;;;;;5009493;28;20049;-56
2023/01/17 04:55:57;;;;;;;9.63;9.02;;;;;;;;;;5026415;28;20112;-56
2023/01/17 04:58:23;;;;;;;9.35;8.75;;;;;;;;;;5024719;28;20033;-56
2023/01/17 05:00:49;;;;;;;9.55;8.95;;;;;;;;;;5026030;28;20029;-55
2023/01/17 05:03:19;;;;;;;8.95;8.35;;;;;;;;;;5026305;28;20049;-56
2023/01/17 05:05:45;;;;;;;9.85;9.15;;;;;;;;;;5026888;28;20044;-55
2023/01/17 05:08:11;;;;;;;9.52;8.93;;;;;;;;;;5026176;28;20041;-56
2023/01/17 05:10:36;;;;;;;10.25;9.65;;;;;;;;;;5025970;28;20047;-56
2023/01/17 05:13:02;;;;;;;9.80;9.20;;;;;;;;;;5026294;28;20112;-61
2023/01/17 05:15:28;;;;;;;9.55;8.85;;;;;;;;;;5026696;28;20056;-56
2023/01/17 05:17:54;;;;;;;9.65;9.00;;;;;;;;;;5026897;28;20037;-57
2023/01/17 05:20:21;;;;;;;9.25;8.65;;;;;;;;;;5024785;28;20409;-57
2023/01/17 05:22:54;;;;;;;9.10;8.50;;;;;;;;;;5025549;28;20029;-57
2023/01/17 05:25:26;;;;;;;9.13;8.52;;;;;;;;;;5025186;28;20055;-58
2023/01/17 05:27:51;;;;;;;;;;;;;;;;;;5027300;28;20041;-56
2023/01/17 05:30:17;;;;;;;8.95;8.35;;;;;;;;;;5023000;28;20409;-57
2023/01/17 05:32:50;;;;;;;8.18;7.68;;;;;;;;;;5025543;28;20038;-56
2023/01/17 05:35:21;;;;;;;8.32;7.82;;;;;;;;;;5025615;28;20041;-54
2023/01/17 05:37:48;;;;;;;9.63;8.70;;;;;;;;;;5025874;28;20041;-56
2023/01/17 05:40:18;;;;;;;8.90;8.30;;;;;;;;;;5025507;28;20052;-55
2023/01/17 05:42:47;;;;;;;9.30;8.70;;;;;;;;;;5025211;28;20095;-56
2023/01/17 05:45:15;;;;;;;9.25;8.65;;;;;;;;;;5024543;28;20037;-56
2023/01/17 05:47:45;;;;;;;9.95;9.25;;;;;;;;;;5025612;28;20041;-55
2023/01/17 05:50:12;;;;;;;10.95;10.25;;;;;;;;;;5022942;28;20029;-55
2023/01/17 05:52:38;;;;;;;9.18;8.57;;;;;;;;;;5025281;28;20037;-56
2023/01/17 05:55:05;;;;;;;9.85;9.25;;;;;;;;;;5024118;28;20040;-56
2023/01/17 05:57:31;;;;;;;9.15;8.55;;;;;;;;;;5025862;28;20033;-56
2023/01/17 05:59:56;;;;;;;9.30;8.70;;;;;;;;;;5025970;28;20498;-56
2023/01/17 06:02:21;;;;;;;9.45;8.85;;;;;;;;;;5024352;28;20474;-56
2023/01/17 06:04:47;;;;;;;9.32;8.73;;;;;;;;;;5025606;28;20037;-54
2023/01/17 06:07:12;;;;;;;9.40;8.80;;;;;;;;;;5025357;28;20270;-56
2023/01/17 06:09:37;;;;;;;9.38;8.77;;;;;;;;;;5025553;28;20041;-55
2023/01/17 06:12:03;;;;;;;9.60;9.00;;;;;;;;;;5024451;28;20030;-57
2023/01/17 06:14:28;;;;;;;10.20;9.52;;;;;;;;;;5025842;28;20471;-57
2023/01/17 06:16:53;;;;;;;10.00;9.40;;;;;;;;;;5025287;28;20051;-57
2023/01/17 06:19:19;;;;;;;9.50;8.90;;;;;;;;;;5023994;28;20156;-55
2023/01/17 06:21:44;;;;;;;9.32;8.73;;;;;;;;;;5025357;28;20179;-57
2023/01/17 06:24:09;;;;;;;10.60;9.98;;;;;;;;;;5023915;28;20447;-56
2023/01/17 06:26:35;;;;;;;9.25;8.65;;;;;;;;;;5025479;28;20431;-55
2023/01/17 06:29:00;;;;;;;10.20;9.40;;;;;;;;;;5024979;28;20482;-54
2023/01/17 06:31:25;;;;;;;9.68;9.07;;;;;;;;;;5025436;28;20475;-56
2023/01/17 06:33:51;;;;;;;10.18;9.32;;;;;;;;;;5025481;28;20450;-54
2023/01/17 06:36:16;;;;;;;9.00;8.40;;;;;;;;;;5023619;28;20057;-55
2023/01/17 06:38:41;;;;;;;10.25;9.65;;;;;;;;;;5025392;28;20037;-55
2023/01/17 06:41:08;;;;;;;9.75;9.15;;;;;;;;;;5019826;28;20037;-60
2023/01/17 06:43:33;;;;;;;10.02;9.35;;;;;;;;;;5024116;28;20218;-60
2023/01/17 06:46:00;;;;;;;9.85;9.15;;;;;;;;;;5024389;28;20144;-60
2023/01/17 06:48:25;;;;;;;9.40;8.80;;;;;;;;;;5024130;28;20026;-60
2023/01/17 06:50:50;;;;;;;9.70;9.10;;;;;;;;;;5024343;28;20636;-60
2023/01/17 06:53:16;;;;;;;9.10;8.50;;;;;;;;;;5024571;28;20135;-60
2023/01/17 06:55:42;;;;;;;9.48;8.88;;;;;;;;;;5024968;28;20336;-60
2023/01/17 06:58:08;;;;;;;9.73;9.13;;;;;;;;;;5024494;28;20044;-60
2023/01/17 07:00:34;;;;;;;9.70;9.02;;;;;;;;;;5022530;28;20490;-60
2023/01/17 07:03:00;;;;;;;10.05;9.35;;;;;;;;;;5026282;28;20084;-60
2023/01/17 07:05:27;;;;;;;10.32;9.63;;;;;;;;;;5018189;28;20041;-59
2023/01/17 07:07:53;;;;;;;9.45;8.85;;;;;;;;;;5027605;28;20044;-60
2023/01/17 07:10:19;;;;;;;10.25;9.55;;;;;;;;;;5028606;28;20033;-60
2023/01/17 07:12:44;;;;;;;9.15;8.55;;;;;;;;;;5026525;28;20029;-60
2023/01/17 07:15:10;;;;;;;9.55;8.95;;;;;;;;;;5027350;28;20052;-60
2023/01/17 07:17:36;;;;;;;9.38;8.77;;;;;;;;;;5028003;28;20041;-60
2023/01/17 07:20:01;;;;;;;9.13;8.52;;;;;;;;;;5028067;28;20034;-60
2023/01/17 07:22:27;;;;;;;9.00;8.40;;;;;;;;;;5028340;28;20034;-59
2023/01/17 07:24:57;;;;;;;10.15;9.55;;;;;;;;;;5028078;28;20119;-60
2023/01/17 07:27:23;;;;;;;10.18;9.48;;;;;;;;;;5022383;28;20048;-60
2023/01/17 07:29:48;;;;;;;11.23;10.43;;;;;;;;;;5026034;28;20037;-60
2023/01/17 07:32:14;;;;;;;8.95;8.35;;;;;;;;;;5025642;28;20040;-60
2023/01/17 07:34:39;;;;;;;9.52;8.82;;;;;;;;;;5027556;28;20037;-60
2023/01/17 07:37:05;;;;;;;10.35;9.55;;;;;;;;;;5025311;28;20029;-60
2023/01/17 07:39:30;;;;;;;12.40;11.50;;;;;;;;;;5025904;28;20041;-60
2023/01/17 07:41:55;;;;;;;11.30;10.43;;;;;;;;;;5025900;28;20094;-60
2023/01/17 07:44:21;;;;;;;10.43;9.82;;;;;;;;;;5025589;28;20037;-60
2023/01/17 07:46:46;;;;;;;9.25;8.65;;;;;;;;;;5028189;28;20055;-60
2023/01/17 07:49:13;;;;;;;9.77;9.07;;;;;;;;;;5021808;28;20029;-59
2023/01/17 07:51:38;;;;;;;9.60;9.00;;;;;;;;;;5023715;28;20216;-60
2023/01/17 07:54:04;;;;;;;9.00;8.40;;;;;;;;;;5025735;28;20503;-62
2023/01/17 07:56:29;;;;;;;9.85;9.25;;;;;;;;;;5023023;28;20106;-60
2023/01/17 07:58:55;;;;;;;10.32;9.63;;;;;;;;;;5027146;28;20905;-60
2023/01/17 08:01:20;;;;;;;9.23;8.63;;;;;;;;;;5025028;28;20041;-60
2023/01/17 08:03:49;;;;;;;9.50;8.90;;;;;;;;;;5024042;28;20145;-60
2023/01/17 08:06:19;;;;;;;10.10;9.40;;;;;;;;;;5024705;28;20034;-60
2023/01/17 08:08:45;;;;;;;10.55;9.85;;;;;;;;;;5024509;28;20140;-60
2023/01/17 08:11:11;;;;;;;9.48;8.88;;;;;;;;;;5023897;28;20044;-60
2023/01/17 08:13:37;;;;;;;9.65;9.02;;;;;;;;;;5024242;28;20033;-60
2023/01/17 08:16:03;;;;;;;8.95;8.25;;;;;;;;;;5024358;28;20043;-59
2023/01/17 08:18:29;;;;;;;9.38;8.77;;;;;;;;;;5025200;28;20045;-60
2023/01/17 08:20:55;;;;;;;9.73;8.85;;;;;;;;;;5024872;28;20045;-60
2023/01/17 08:23:20;;;;;;;8.75;8.15;;;;;;;;;;5022812;28;20061;-60
2023/01/17 08:25:45;;;;;;;9.02;8.43;;;;;;;;;;5025267;28;20131;-60
2023/01/17 08:28:11;;;;;;;9.13;8.52;;;;;;;;;;5023783;28;20033;-60
2023/01/17 08:30:37;;;;;;;8.85;8.25;;;;;;;;;;5022636;28;20037;-59
2023/01/17 08:33:02;;;;;;;9.68;8.88;;;;;;;;;;5026793;28;20105;-60
2023/01/17 08:35:28;;;;;;;9.23;8.63;;;;;;;;;;5026686;28;20110;-59
2023/01/17 08:37:54;;;;;;;9.57;8.93;;;;;;;;;;5025747;28;20103;-59
2023/01/17 08:40:20;;;;;;;10.20;9.48;;;;;;;;;;5025505;28;20049;-60
2023/01/17 08:42:56;;;;;;;9.38;8.75;;;;;;;;;;5023816;28;20049;-60
2023/01/17 08:45:22;;;;;;;8.60;8.00;;;;;;;;;;5026341;28;20129;-60
2023/01/17 08:47:47;;;;;;;9.10;8.50;;;;;;;;;;5027086;28;20033;-60
2023/01/17 08:50:13;;;;;;;9.00;8.40;;;;;;;;;;5024626;28;20111;-59
2023/01/17 08:52:38;;;;;;;10.00;9.38;;;;;;;;;;5026206;28;20026;-60
2023/01/17 08:55:04;;;;;;;9.82;9.13;;;;;;;;;;5025788;28;20120;-55
2023/01/17 08:57:30;;;;;;;9.23;8.63;;;;;;;;;;5024688;28;20033;-55
2023/01/17 08:59:56;;;;;;;11.15;10.45;;;;;;;;;;5024982;28;20042;-54
2023/01/17 09:02:23;;;;;;;11.20;10.48;;;;;;;;;;5025193;28;20041;-54
2023/01/17 09:04:49;;;;;;;11.35;10.65;;;;;;;;;;5024915;28;20045;-58
2023/01/17 09:07:16;;;;;;;11.32;10.63;;;;;;;;;;5025331;28;20038;-58
2023/01/17 09:09:41;;;;;;;12.68;11.88;;;;;;;;;;5026179;28;20382;-58
2023/01/17 09:12:06;;;;;;;11.95;11.25;;;;;;;;;;5025729;28;20039;-55
2023/01/17 09:14:33;;;;;;;12.27;11.57;;;;;;;;;;5026200;28;20116;-59
2023/01/17 09:16:58;;;;;;;12.48;11.63;;;;;;;;;;5026522;28;20029;-58
2023/01/17 09:19:24;;;;;;;11.68;10.98;;;;;;;;;;5025458;28;20052;-58
2023/01/17 09:21:49;;;;;;;12.85;12.05;;;;;;;;;;5025572;28;20112;-58
2023/01/17 09:24:15;;;;;;;12.38;11.63;;;;;;;;;;5025389;28;20044;-55
2023/01/17 09:26:40;;;;;;;13.27;12.48;;;;;;;;;;5025393;28;20041;-53
2023/01/17 09:29:05;;;;;;;13.48;12.68;;;;;;;;;;5025717;28;20041;-53
2023/01/17 09:31:31;;;;;;;12.55;11.48;;;;;;;;;;5025183;28;20029;-59
2023/01/17 09:33:57;;;;;;;14.27;13.40;;;;;;;;;;5025969;28;20041;-55
2023/01/17 09:36:27;;;;;;;12.77;12.07;;;;;;;;;;5025265;28;20041;-55
2023/01/17 09:38:59;;;;;;;11.95;11.25;;;;;;;;;;5025152;28;20049;-59
2023/01/17 09:41:29;;;;;;;12.75;11.95;;;;;;;;;;5024467;28;20621;-59
2023/01/17 09:44:22;;;;;;;13.27;12.48;;;;;;;;;;5026178;28;20033;-55
2023/01/17 09:46:49;;;;;;;12.60;11.80;;;;;;;;;;5026590;28;20046;-59
2023/01/17 09:49:31;;;;;;;12.98;12.18;;;;;;;;;;5024028;28;20098;-56
2023/01/17 09:51:56;;;;;;;11.85;11.15;;;;;;;;;;5023451;28;20523;-55
2023/01/17 09:54:26;;;;;;;12.07;11.30;;;;;;;;;;5025290;28;20148;-59
2023/01/17 09:56:57;;;;;;;12.98;12.18;;;;;;;;;;5025033;28;20329;-59
2023/01/17 09:59:28;;;;;;;;;;;;;;;;;;5022991;28;20037;-59
2023/01/17 10:02:28;;;;;;;11.85;11.15;;;;;;;;;;5025675;28;19928;-58
2023/01/17 10:05:05;;;;;;;13.18;12.38;;;;;;;;;;5025596;28;20103;-54
2023/01/17 10:07:44;;;;;;;11.48;10.77;;;;;;;;;;5025781;28;20057;-53
2023/01/17 10:10:28;;;;;;;11.23;10.52;;;;;;;;;;5025010;28;20072;-59
2023/01/17 10:13:12;;;;;;;13.23;12.43;;;;;;;;;;5025267;28;20048;-59
2023/01/17 10:15:40;;;;;;;11.32;10.63;;;;;;;;;;5025950;28;20070;-55
2023/01/17 10:18:33;;;;;;;11.13;10.43;;;;;;;;;;5025120;28;20045;-54
2023/01/17 10:21:31;;;;;;;11.10;10.40;;;;;;;;;;5024785;28;20037;-54
2023/01/17 10:24:15;;;;;;;12.07;11.38;;;;;;;;;;5025443;28;20045;-59
2023/01/17 10:26:55;;;;;;;11.98;11.27;;;;;;;;;;5022878;28;20583;-59
2023/01/17 10:29:22;;;;;;;10.50;9.80;;;;;;;;;;5022986;28;20727;-54
2023/01/17 10:31:53;;;;;;;11.68;10.98;;;;;;;;;;5025137;28;20040;-55
2023/01/17 10:34:23;;;;;;;11.45;10.75;;;;;;;;;;5024338;28;20041;-55
2023/01/17 10:36:55;;;;;;;9.63;9.02;;;;;;;;;;5024627;28;20332;-58
2023/01/17 10:39:23;;;;;;;10.35;9.65;;;;;;;;;;5021632;28;20029;-55
2023/01/17 10:41:54;;;;;;;11.18;10.13;;;;;;;;;;5024770;28;20034;-59
2023/01/17 10:44:41;;;;;;;9.95;9.35;;;;;;;;;;5022840;28;20052;-55
2023/01/17 10:47:09;;;;;;;10.60;9.98;;;;;;;;;;5023990;28;20104;-53
2023/01/17 10:49:38;;;;;;;10.63;9.82;;;;;;;;;;5023283;28;20052;-55
2023/01/17 10:52:15;;;;;;;10.55;9.95;;;;;;;;;;5022785;28;20404;-58
2023/01/17 10:54:51;;;;;;;10.00;9.40;;;;;;;;;;5023869;28;20022;-52
2023/01/17 10:57:22;;;;;;;9.95;9.30;;;;;;;;;;5020650;28;21409;-54
2023/01/17 10:59:48;;;;;;;11.13;10.43;;;;;;;;;;5023843;28;20087;-55
2023/01/17 11:02:23;;;;;;;10.68;10.00;;;;;;;;;;5023051;28;20034;-58
2023/01/17 11:04:53;;;;;;;11.85;11.05;;;;;;;;;;5023846;28;20501;-52
2023/01/17 11:07:26;;;;;;;10.85;10.20;;;;;;;;;;5023351;28;20033;-59
2023/01/17 11:09:57;;;;;;;10.77;9.82;;;;;;;;;;5023485;28;20025;-59
2023/01/17 11:12:38;;;;;;;11.20;10.50;;;;;;;;;;5022390;28;20026;-60
2023/01/17 11:15:03;;;;;;;;;;;;;;;;;;5023727;28;20037;-60
2023/01/17 11:17:30;;;;;;;11.55;10.85;;;;;;;;;;5023818;28;19909;-56
2023/01/17 11:20:15;;;;;;;10.52;9.85;;;;;;;;;;5023321;28;20370;-57
2023/01/17 11:22:46;;;;;;;11.20;10.50;;;;;;;;;;5024868;28;20107;-57
2023/01/17 11:25:21;;;;;;;11.23;10.52;;;;;;;;;;5023464;28;20383;-60
2023/01/17 11:27:58;;;;;;;10.82;10.15;;;;;;;;;;5023468;28;20076;-60
2023/01/17 11:30:28;;;;;;;10.10;9.50;;;;;;;;;;5023910;28;20120;-60
2023/01/17 11:32:58;;;;;;;10.52;9.90;;;;;;;;;;5024940;28;20029;-59
2023/01/17 11:35:32;;;;;;;11.52;10.82;;;;;;;;;;5036603;28;20540;-59
2023/01/17 11:38:15;;;;;;;10.00;9.40;;;;;;;;;;5023552;28;20108;-55
2023/01/17 11:40:42;;;;;;;11.00;10.30;;;;;;;;;;5022891;28;20034;-56
2023/01/17 11:43:10;;;;;;;10.30;9.70;;;;;;;;;;5023124;28;20049;-56
2023/01/17 11:45:35;;;;;;;9.98;9.38;;;;;;;;;;5024668;28;20431;-56
2023/01/17 11:48:07;;;;;;;12.00;11.15;;;;;;;;;;5021599;28;20120;-59
2023/01/17 11:50:34;;;;;;;10.13;9.52;;;;;;;;;;5023565;28;20160;-56
2023/01/17 11:53:23;;;;;;;9.90;9.30;;;;;;;;;;5026187;28;20018;-55
2023/01/17 11:56:19;;;;;;;11.15;10.45;;;;;;;;;;5027620;28;20048;-57
2023/01/17 11:58:46;;;;;;;10.90;10.20;;;;;;;;;;5026621;28;20068;-57
2023/01/17 12:01:26;;;;;;;9.85;9.25;;;;;;;;;;5027359;28;20033;-56
2023/01/17 12:04:08;;;;;;;10.90;10.25;;;;;;;;;;5028507;28;20033;-55
2023/01/17 12:06:42;;;;;;;10.23;9.63;;;;;;;;;;5025859;28;20041;-56
2023/01/17 12:09:21;;;;;;;11.30;10.60;;;;;;;;;;5026523;28;20033;-60
2023/01/17 12:15:06;;;;;;;11.32;10.63;;;;;;;;;;5026362;28;20375;-58
2023/01/17 12:18:00;;;;;;;11.05;10.35;;;;;;;;;;5026052;28;20490;-58
2023/01/17 12:20:37;;;;;;;10.27;9.68;;;;;;;;;;5024965;28;20517;-58
2023/01/17 12:23:21;;;;;;;10.30;9.70;;;;;;;;;;5027220;28;20034;-60
2023/01/17 12:26:12;;;;;;;10.80;10.10;;;;;;;;;;5024625;28;20033;-60
2023/01/17 12:29:08;;;;;;;10.55;9.95;;;;;;;;;;5024532;28;20125;-60
2023/01/17 12:31:59;;;;;;;12.38;11.63;;;;;;;;;;5024750;28;20038;-60
2023/01/17 12:34:57;;;;;;;10.88;10.18;;;;;;;;;;5018095;28;20034;-60
2023/01/17 12:37:33;;;;;;;10.57;9.88;;;;;;;;;;5026407;28;20654;-60
2023/01/17 12:40:21;;;;;;;12.55;10.02;;;;;;;;;;5025509;28;20067;-60
2023/01/17 12:43:06;;;;;;;10.32;9.73;;;;;;;;;;5024673;28;20107;-60
2023/01/17 12:45:37;;;;;;;11.40;10.70;;;;;;;;;;5033303;28;20164;-60
2023/01/17 12:48:17;;;;;;;10.98;10.27;;;;;;;;;;5026924;28;20036;-59
2023/01/17 12:51:02;;;;;;;11.40;10.70;;;;;;;;;;5025560;28;20095;-60
2023/01/17 12:54:23;;;;;;;11.38;10.68;;;;;;;;;;5025123;28;20068;-59
2023/01/17 12:56:55;;;;;;;12.32;11.63;;;;;;;;;;4978163;28;20600;-58
2023/01/17 13:00:22;;;;;;;10.85;10.20;;;;;;;;;;5015793;28;20049;-59
2023/01/17 13:02:53;;;;;;;11.50;10.80;;;;;;;;;;5019821;28;20128;-59
2023/01/17 13:05:24;;;;;;;11.43;10.73;;;;;;;;;;5024730;28;20068;-59
2023/01/17 13:08:18;;;;;;;10.77;10.10;;;;;;;;;;5025064;28;20439;-59
2023/01/17 13:11:02;;;;;;;11.32;10.63;;;;;;;;;;5023739;28;20095;-59
2023/01/17 13:13:29;;;;;;;11.40;10.70;;;;;;;;;;5021872;28;20535;-59
2023/01/17 13:16:17;;;;;;;10.13;9.52;;;;;;;;;;5023028;28;20043;-59
2023/01/17 13:18:45;;;;;;;10.75;10.05;;;;;;;;;;5026149;28;20114;-58
2023/01/17 13:21:25;;;;;;;10.30;9.70;;;;;;;;;;5025909;28;20025;-57
2023/01/17 13:24:06;;;;;;;10.73;10.02;;;;;;;;;;5025594;28;20069;-59
2023/01/17 13:26:50;;;;;;;10.77;10.13;;;;;;;;;;5024431;28;20107;-59
2023/01/17 13:29:34;;;;;;;10.90;10.23;;;;;;;;;;5024409;28;20275;-59
2023/01/17 13:32:20;;;;;;;11.90;11.10;;;;;;;;;;5024706;28;20079;-58
2023/01/17 13:35:27;;;;;;;10.60;9.95;;;;;;;;;;5025328;28;20033;-58
2023/01/17 13:38:11;;;;;;;11.93;11.23;;;;;;;;;;5020582;28;20087;-58
2023/01/17 13:40:57;;;;;;;11.50;10.80;;;;;;;;;;5021620;28;20033;-59
2023/01/17 13:43:38;;;;;;;10.90;10.20;;;;;;;;;;5021383;28;20554;-58
2023/01/17 13:46:04;;;;;;;11.43;10.73;;;;;;;;;;5024080;28;20358;-58
2023/01/17 13:48:32;;;;;;;11.27;10.57;;;;;;;;;;5024484;28;20115;-58
2023/01/17 13:51:05;;;;;;;11.18;10.48;;;;;;;;;;5023813;28;20033;-58
2023/01/17 13:53:33;;;;;;;11.68;10.98;;;;;;;;;;5024855;28;20025;-58
2023/01/17 13:56:20;;;;;;;10.73;10.05;;;;;;;;;;5024315;28;20037;-58
2023/01/17 13:58:53;;;;;;;10.30;9.70;;;;;;;;;;5026223;28;20061;-58
2023/01/17 14:01:21;;;;;;;11.27;10.57;;;;;;;;;;5025150;28;20049;-58
2023/01/17 14:03:53;;;;;;;11.40;10.70;;;;;;;;;;5014710;28;20497;-58
2023/01/17 14:06:34;;;;;;;;;;;;;;;;;;5026483;28;20095;-58
2023/01/17 14:09:11;;;;;;;11.00;10.30;;;;;;;;;;5031466;28;20333;-58
2023/01/17 14:12:03;;;;;;;10.23;9.63;;;;;;;;;;5024113;28;20041;-59
2023/01/17 14:14:59;;;;;;;11.20;10.50;;;;;;;;;;5024086;28;20523;-58
2023/01/17 14:17:27;;;;;;;11.70;10.73;;;;;;;;;;5015314;28;20049;-59
2023/01/17 14:20:24;;;;;;;11.68;10.98;;;;;;;;;;5025563;28;20037;-58
2023/01/17 14:22:53;;;;;;;11.27;10.57;;;;;;;;;;5023934;28;20052;-58
2023/01/17 14:25:22;;;;;;;11.98;11.18;;;;;;;;;;5024328;28;20030;-54
2023/01/17 14:27:59;;;;;;;11.48;10.77;;;;;;;;;;5023832;28;20041;-58
2023/01/17 14:30:34;;;;;;;12.07;11.38;;;;;;;;;;5023355;28;20037;-58
2023/01/17 14:33:03;;;;;;;11.82;11.13;;;;;;;;;;5023078;28;20471;-58
2023/01/17 14:35:32;;;;;;;11.15;10.45;;;;;;;;;;5023458;28;20033;-54
2023/01/17 14:38:00;;;;;;;12.93;12.13;;;;;;;;;;5025267;28;20029;-54
2023/01/17 14:40:29;;;;;;;13.15;12.35;;;;;;;;;;5023953;28;20052;-53
2023/01/17 14:43:04;;;;;;;12.73;11.93;;;;;;;;;;5023950;28;20099;-55
2023/01/17 14:45:35;;;;;;;12.57;11.77;;;;;;;;;;5023436;28;20037;-56
2023/01/17 14:48:04;;;;;;;13.02;12.10;;;;;;;;;;5025806;28;20029;-55
2023/01/17 14:50:37;;;;;;;12.93;12.13;;;;;;;;;;5024082;28;20037;-55
2023/01/17 14:53:12;;;;;;;13.32;12.32;;;;;;;;;;5025352;28;20029;-53
2023/01/17 14:55:53;;;;;;;11.40;10.70;;;;;;;;;;5023682;28;20119;-54
2023/01/17 14:58:26;;;;;;;11.82;11.13;;;;;;;;;;5024341;28;20893;-54
2023/01/17 15:01:19;;;;;;;11.65;10.95;;;;;;;;;;5023567;28;20124;-54
2023/01/17 15:03:48;;;;;;;11.68;10.98;;;;;;;;;;5021782;28;20034;-54
2023/01/17 15:06:19;;;;;;;12.10;11.40;;;;;;;;;;5024147;28;20132;-53
2023/01/17 15:08:45;;;;;;;11.63;10.93;;;;;;;;;;5024880;28;20613;-54
2023/01/17 15:11:22;;;;;;;10.93;10.23;;;;;;;;;;5024614;28;20042;-52
2023/01/17 15:13:50;;;;;;;11.23;10.52;;;;;;;;;;5024265;28;20116;-55
2023/01/17 15:16:17;;;;;;;11.57;10.80;;;;;;;;;;5023479;28;20048;-51
2023/01/17 15:18:43;;;;;;;10.77;10.10;;;;;;;;;;5023167;28;20047;-55
2023/01/17 15:21:12;;;;;;;11.88;11.18;;;;;;;;;;5022248;28;20395;-53
2023/01/17 15:23:46;;;;;;;9.95;9.35;;;;;;;;;;5026308;28;20463;-54
2023/01/17 15:26:16;;;;;;;11.80;10.95;;;;;;;;;;5026189;28;20044;-54
2023/01/17 15:28:45;;;;;;;10.57;9.98;;;;;;;;;;5027985;28;20037;-55
2023/01/17 15:31:22;;;;;;;9.98;9.25;;;;;;;;;;5026487;28;20029;-57
2023/01/17 15:33:53;;;;;;;9.15;8.55;;;;;;;;;;5027484;28;20034;-60
2023/01/17 15:36:31;;;;;;;11.50;10.80;;;;;;;;;;5029160;28;20033;-59
2023/01/17 15:39:06;;;;;;;10.43;9.73;;;;;;;;;;5027622;28;20025;-58
2023/01/17 15:41:34;;;;;;;10.48;9.77;;;;;;;;;;5025240;28;20556;-57
2023/01/17 15:44:01;;;;;;;10.70;10.00;;;;;;;;;;5010105;28;20041;-58
2023/01/17 15:46:39;;;;;;;9.35;8.75;;;;;;;;;;5028101;28;20037;-59
2023/01/17 15:49:25;;;;;;;9.30;8.70;;;;;;;;;;5027427;28;20056;-58
2023/01/17 15:52:00;;;;;;;10.18;9.57;;;;;;;;;;5026058;28;20468;-60
2023/01/17 15:54:49;;;;;;;10.57;9.77;;;;;;;;;;5027937;28;20084;-53
2023/01/17 15:57:34;;;;;;;9.95;9.35;;;;;;;;;;5028168;28;20103;-54
2023/01/17 16:00:11;;;;;;;10.63;10.02;;;;;;;;;;5027618;28;20057;-55
2023/01/17 16:02:57;;;;;;;11.10;10.40;;;;;;;;;;5024181;28;20053;-57
2023/01/17 16:05:23;;;;;;;9.63;9.02;;;;;;;;;;5028413;28;20359;-53
2023/01/17 16:07:50;;;;;;;10.20;9.60;;;;;;;;;;5027126;28;20033;-54
2023/01/17 16:10:21;;;;;;;9.75;9.15;;;;;;;;;;5026967;28;20041;-56
2023/01/17 16:12:49;;;;;;;10.45;9.65;;;;;;;;;;5026705;28;20479;-54
2023/01/17 16:15:15;;;;;;;9.93;9.32;;;;;;;;;;5027648;28;20037;-51
2023/01/17 16:17:44;;;;;;;9.25;8.65;;;;;;;;;;5024949;28;20786;-53